Details for TUI Nordic at EFHK




Go Back


Latest METAR
Local Time

EFHK 232350Z 36006KT CAVOK M16/M18 Q1034 NOSIG

24/02/2018, 02:00:07

Description
Results
TUI Nordic Logo
Number of Pilots based at EFHK
0 Pilots Based here
Number of TUI Nordic Flights Departed from EFHK
0 Flights Departed
Number of TUI Nordic Flights Arrived at EFHK
1 Flights Arrived
Number of TUI Nordic Schedules Departing from EFHK
13 Schedules
Number of TUI Nordic Schedules Arriving at EFHK
15 Schedules
Number of TUI Nordic Schedules Departing from EFHK availible today
1 Schedules Today
Number of TUI Nordic Schedules Arriving at EFHK availible today
3 Schedules Today
Average Landing Rate at EFHK
-178 fpm
TUI Nordic Average Landing Rate at EFHK
-425 fpm
Total Fuel Purchased at EFHK by TUI Nordic
0.00 kgs / 0.00 lbs

Pilots Based at EFHK


Pilot ID
Pilot Name
Pilot Rank
No. of Flights
No. of Flying Hours
There are no pilots assigned to this hub!   Will you be the first?
Content